Time;durP1;ratioP1;P1;durP2;ratioP2;P2;SDS_P1;SDS_P2;PMS_P1;PMS_P2;Temp;Humidity;BMP_temperature;BMP_pressure;BME280_temperature;BME280_humidity;BME280_pressure;Samples;Min_cycle;Max_cycle;Signal;HPM_P1;HPM_P2
2020/12/31 00:01:19;;;;;;;;;;;;;;;8.83;79.44;92493.25;5111395;28;20273;-87
2020/12/31 00:03:45;;;;;;;;;;;;;;;8.74;79.49;92487.63;5111224;28;19946;-86
2020/12/31 00:06:11;;;;;;;;;;;;;;;8.61;80.18;92488.56;5114450;28;20036;-87
2020/12/31 00:08:37;;;;;;;;;;;;;;;8.43;80.67;92491.91;5115270;28;19928;-87
2020/12/31 00:11:03;;;;;;;;;;;;;;;8.50;80.71;92484.94;5114911;28;19919;-86
2020/12/31 00:13:29;;;;;;;;;;;;;;;8.45;81.00;92474.56;5114778;28;20048;-86
2020/12/31 00:15:56;;;;;;;;;;;;;;;8.49;80.56;92469.78;5114911;28;20044;-86
2020/12/31 00:18:23;;;;;;;;;;;;;;;8.53;79.92;92465.84;5115327;28;19923;-85
2020/12/31 00:20:49;;;;;;;;;;;;;;;8.48;80.18;92469.00;5114844;28;19920;-86
2020/12/31 00:23:14;;;;;;;;;;;;;;;8.47;80.26;92472.56;5114933;28;19920;-86
2020/12/31 00:25:49;;;;;;;;;;;;;;;8.48;80.03;92475.91;5114781;28;19968;-86
2020/12/31 00:28:15;;;;;;;;;;;;;;;8.43;80.05;92486.78;5114732;28;21069;-86
2020/12/31 00:30:41;;;;;;;;;;;;;;;8.37;80.44;92479.94;5114508;28;20420;-86
2020/12/31 00:33:07;;;;;;;;;;;;;;;8.33;80.40;92469.38;5114507;28;19924;-86
2020/12/31 00:35:34;;;;;;;;;;;;;;;8.29;80.50;92465.69;5114549;28;19969;-87
2020/12/31 00:38:00;;;;;;;;;;;;;;;8.10;81.56;92464.91;5114675;28;19919;-87
2020/12/31 00:40:26;;;;;;;;;;;;;;;8.08;81.60;92469.44;5114287;28;19923;-86
2020/12/31 00:42:52;;;;;;;;;;;;;;;8.07;81.31;92466.09;5114159;28;19919;-86
2020/12/31 00:45:18;;;;;;;;;;;;;;;8.08;81.16;92461.75;5113682;28;20419;-88
2020/12/31 00:47:45;;;;;;;;;;;;;;;7.97;81.59;92456.34;5113908;28;19919;-86
2020/12/31 00:50:11;;;;;;;;;;;;;;;7.93;81.60;92450.09;5113868;28;19920;-86
2020/12/31 00:52:38;;;;;;;;;;;;;;;7.87;82.06;92443.28;5114016;28;19920;-86
2020/12/31 00:55:04;;;;;;;;;;;;;;;7.84;82.44;92446.25;5113911;28;19923;-85
2020/12/31 00:57:30;;;;;;;;;;;;;;;7.78;82.54;92442.00;5113865;28;20392;-87
2020/12/31 00:59:56;;;;;;;;;;;;;;;7.73;82.85;92442.63;5113703;28;19927;-86
2020/12/31 01:02:22;;;;;;;;;;;;;;;7.77;82.94;92432.75;5114037;28;19924;-86
2020/12/31 01:04:48;;;;;;;;;;;;;;;7.75;82.95;92427.84;5113874;28;19920;-87
2020/12/31 01:07:15;;;;;;;;;;;;;;;7.73;83.17;92425.50;5113874;28;19923;-86
2020/12/31 01:09:42;;;;;;;;;;;;;;;7.69;83.15;92421.78;5113631;28;19920;-86
2020/12/31 01:12:08;;;;;;;;;;;;;;;7.56;83.81;92425.28;5113550;28;19985;-86
2020/12/31 01:14:34;;;;;;;;;;;;;;;7.65;83.24;92413.00;5113371;28;20017;-86
2020/12/31 01:17:00;;;;;;;;;;;;;;;7.43;84.41;92421.06;5113290;28;20377;-87
2020/12/31 01:19:26;;;;;;;;;;;;;;;7.49;84.44;92424.53;5113836;28;19926;-86
2020/12/31 01:21:52;;;;;;;;;;;;;;;7.55;83.99;92433.16;5113504;28;19931;-86
2020/12/31 01:24:18;;;;;;;;;;;;;;;7.43;84.59;92421.06;5113546;28;19920;-85
2020/12/31 01:26:45;;;;;;;;;;;;;;;7.37;84.94;92421.91;5113214;28;19926;-86
2020/12/31 01:29:11;;;;;;;;;;;;;;;7.24;85.31;92425.34;5112757;28;20479;-85
2020/12/31 01:31:37;;;;;;;;;;;;;;;7.25;85.24;92429.44;5113046;28;19989;-87
2020/12/31 01:34:05;;;;;;;;;;;;;;;7.18;85.30;92421.06;5113035;28;19941;-86
2020/12/31 01:36:31;;;;;;;;;;;;;;;7.20;85.29;92426.72;5094794;28;19927;-86
2020/12/31 01:38:59;;;;;;;;;;;;;;;7.20;85.23;92414.75;5092839;28;19931;-86
2020/12/31 01:41:25;;;;;;;;;;;;;;;7.18;85.60;92398.06;5099050;28;19920;-85
2020/12/31 01:44:06;;;;;;;;;;;;;;;7.16;85.57;92400.03;5113078;28;19920;-88
2020/12/31 01:46:33;;;;;;;;;;;;;;;7.25;86.30;92391.13;5113105;28;19919;-87
2020/12/31 01:48:59;;;;;;;;;;;;;;;7.34;85.99;92402.66;5112711;28;20333;-87
2020/12/31 01:51:25;;;;;;;;;;;;;;;7.42;85.44;92391.38;5112663;28;19996;-87
2020/12/31 01:53:56;;;;;;;;;;;;;;;7.53;85.58;92395.00;5112826;28;19920;-86
2020/12/31 01:56:23;;;;;;;;;;;;;;;7.57;85.70;92390.25;5112644;28;20373;-86
2020/12/31 01:58:49;;;;;;;;;;;;;;;7.63;85.43;92402.19;5112992;28;19923;-86
2020/12/31 02:01:17;;;;;;;;;;;;;;;7.66;84.98;92388.22;5112917;28;20370;-88
2020/12/31 02:03:43;;;;;;;;;;;;;;;7.58;85.59;92387.50;5112690;28;19969;-86
2020/12/31 02:06:09;;;;;;;;;;;;;;;7.65;85.42;92378.97;5112507;28;19924;-85
2020/12/31 02:08:35;;;;;;;;;;;;;;;7.68;85.86;92376.78;5112636;28;19948;-87
2020/12/31 02:11:01;;;;;;;;;;;;;;;7.74;85.55;92375.16;5112495;28;19923;-85
2020/12/31 02:13:27;;;;;;;;;;;;;;;7.81;84.76;92370.75;5112831;28;19919;-87
2020/12/31 02:15:53;;;;;;;;;;;;;;;7.78;83.99;92372.97;5112678;28;20278;-85
2020/12/31 02:18:20;;;;;;;;;;;;;;;7.79;83.63;92372.75;5112667;28;19924;-86
2020/12/31 02:20:46;;;;;;;;;;;;;;;7.67;84.29;92377.00;5112730;28;20289;-86
2020/12/31 02:23:13;;;;;;;;;;;;;;;7.67;84.64;92366.75;5112553;28;19990;-85
2020/12/31 02:25:39;;;;;;;;;;;;;;;7.73;84.79;92353.91;5112227;28;19920;-87
2020/12/31 02:28:05;;;;;;;;;;;;;;;7.79;84.71;92346.41;5112052;28;19920;-85
2020/12/31 02:30:31;;;;;;;;;;;;;;;7.83;84.59;92343.19;5112420;28;19985;-86
2020/12/31 02:32:57;;;;;;;;;;;;;;;7.82;84.37;92338.31;5112333;28;20374;-86
2020/12/31 02:35:23;;;;;;;;;;;;;;;7.87;84.37;92336.66;5112188;28;19920;-86
2020/12/31 02:37:49;;;;;;;;;;;;;;;7.93;83.89;92327.38;5112199;28;19969;-85
2020/12/31 02:40:16;;;;;;;;;;;;;;;7.80;83.68;92328.28;5112131;28;19927;-87
2020/12/31 02:42:42;;;;;;;;;;;;;;;7.34;84.74;92327.78;5112306;28;20298;-85
2020/12/31 02:45:08;;;;;;;;;;;;;;;7.43;84.29;92318.84;5112545;28;20289;-85
2020/12/31 02:47:38;;;;;;;;;;;;;;;7.00;85.15;92317.06;5112307;28;19920;-85
2020/12/31 02:50:05;;;;;;;;;;;;;;;6.95;85.61;92323.59;5112308;28;19924;-85
2020/12/31 02:52:31;;;;;;;;;;;;;;;6.66;86.46;92327.53;5111804;28;19919;-85
2020/12/31 02:54:57;;;;;;;;;;;;;;;6.85;86.34;92327.63;5111840;28;20335;-86
2020/12/31 02:57:23;;;;;;;;;;;;;;;6.41;86.78;92339.28;5111722;28;20442;-85
2020/12/31 02:59:50;;;;;;;;;;;;;;;6.21;88.48;92341.16;5111975;28;19929;-86
2020/12/31 03:02:16;;;;;;;;;;;;;;;6.36;88.52;92333.22;5111757;28;20400;-84
2020/12/31 03:04:42;;;;;;;;;;;;;;;6.59;87.75;92326.81;5111768;28;19969;-85
2020/12/31 03:07:08;;;;;;;;;;;;;;;6.62;87.72;92322.06;5111483;28;19919;-87
2020/12/31 03:09:34;;;;;;;;;;;;;;;6.79;87.71;92299.38;5111856;28;19949;-85
2020/12/31 03:12:00;;;;;;;;;;;;;;;7.01;87.96;92300.75;5111831;28;19924;-85
2020/12/31 03:14:27;;;;;;;;;;;;;;;7.19;87.00;92310.22;5111703;28;19924;-87
2020/12/31 03:16:53;;;;;;;;;;;;;;;7.14;86.80;92310.88;5111609;28;19924;-85
2020/12/31 03:19:19;;;;;;;;;;;;;;;7.17;86.14;92299.47;5111604;28;19924;-85
2020/12/31 03:21:45;;;;;;;;;;;;;;;7.03;85.88;92306.47;5111397;28;20309;-85
2020/12/31 03:24:11;;;;;;;;;;;;;;;6.84;87.03;92308.19;5111739;28;19919;-85
2020/12/31 03:26:37;;;;;;;;;;;;;;;6.98;86.47;92299.41;5111368;28;20339;-85
2020/12/31 03:29:03;;;;;;;;;;;;;;;7.06;86.14;92298.34;5111604;28;19926;-85
2020/12/31 03:31:30;;;;;;;;;;;;;;;7.13;85.96;92296.53;5111634;28;19920;-86
2020/12/31 03:33:56;;;;;;;;;;;;;;;6.85;86.73;92296.97;5111453;28;19923;-85
2020/12/31 03:36:22;;;;;;;;;;;;;;;6.99;86.06;92302.75;5111274;28;20370;-85
2020/12/31 03:38:47;;;;;;;;;;;;;;;6.92;86.62;92292.59;5111627;28;19927;-85
2020/12/31 03:41:14;;;;;;;;;;;;;;;7.07;85.80;92295.59;5115356;28;19947;-85
2020/12/31 03:43:40;;;;;;;;;;;;;;;7.01;85.88;92286.22;5115574;28;19920;-84
2020/12/31 03:46:06;;;;;;;;;;;;;;;7.00;85.83;92282.13;5115243;28;19919;-85
2020/12/31 03:48:32;;;;;;;;;;;;;;;7.09;85.48;92290.28;5115325;28;19988;-85
2020/12/31 03:50:58;;;;;;;;;;;;;;;7.12;85.08;92289.84;5114935;28;19919;-85
2020/12/31 03:53:24;;;;;;;;;;;;;;;7.06;85.37;92283.03;5115520;28;19926;-85
2020/12/31 03:55:50;;;;;;;;;;;;;;;6.79;86.23;92276.41;5115128;28;20281;-85
2020/12/31 03:58:16;;;;;;;;;;;;;;;6.79;86.75;92278.16;5115039;28;19919;-85
2020/12/31 04:00:43;;;;;;;;;;;;;;;6.76;87.21;92286.25;5115001;28;19920;-86
2020/12/31 04:03:09;;;;;;;;;;;;;;;6.45;88.64;92292.94;5115016;28;19996;-85
2020/12/31 04:05:35;;;;;;;;;;;;;;;6.46;88.17;92279.97;5114796;28;19931;-85
2020/12/31 04:08:02;;;;;;;;;;;;;;;6.55;88.04;92275.41;5114823;28;19924;-86
2020/12/31 04:10:28;;;;;;;;;;;;;;;6.63;88.58;92279.47;5114787;28;19937;-86
2020/12/31 04:12:54;;;;;;;;;;;;;;;6.88;87.56;92286.34;5114834;28;20006;-87
2020/12/31 04:15:20;;;;;;;;;;;;;;;7.02;88.74;92285.25;5114721;28;20282;-85
2020/12/31 04:17:46;;;;;;;;;;;;;;;7.22;88.53;92282.50;5114747;28;19923;-86
2020/12/31 04:20:12;;;;;;;;;;;;;;;7.31;87.51;92282.22;5114570;28;19927;-85
2020/12/31 04:22:39;;;;;;;;;;;;;;;7.46;86.02;92292.84;5114701;28;19919;-84
2020/12/31 04:25:05;;;;;;;;;;;;;;;7.54;85.14;92283.38;5114808;28;19969;-84
2020/12/31 04:27:31;;;;;;;;;;;;;;;7.57;85.79;92285.47;5114565;28;20362;-86
2020/12/31 04:29:57;;;;;;;;;;;;;;;7.61;85.71;92284.06;5114462;28;19919;-86
2020/12/31 04:32:23;;;;;;;;;;;;;;;7.63;86.09;92276.94;5114360;28;20400;-85
2020/12/31 04:34:49;;;;;;;;;;;;;;;7.67;87.24;92283.22;5114221;28;19923;-86
2020/12/31 04:37:15;;;;;;;;;;;;;;;7.69;87.57;92280.44;5114449;28;19920;-85
2020/12/31 04:39:42;;;;;;;;;;;;;;;7.73;86.93;92279.03;5114390;28;19931;-84
2020/12/31 04:42:08;;;;;;;;;;;;;;;7.78;86.64;92271.47;5114422;28;19965;-85
2020/12/31 04:44:36;;;;;;;;;;;;;;;7.83;87.08;92278.50;5114143;28;20257;-86
2020/12/31 04:47:04;;;;;;;;;;;;;;;7.86;85.99;92283.97;5113848;28;19919;-84
2020/12/31 04:49:36;;;;;;;;;;;;;;;7.87;85.65;92272.75;5114008;28;19920;-85
2020/12/31 04:52:02;;;;;;;;;;;;;;;7.91;85.24;92285.09;5113638;28;19934;-85
2020/12/31 04:54:28;;;;;;;;;;;;;;;7.88;85.27;92276.09;5114272;28;19961;-86
2020/12/31 04:56:55;;;;;;;;;;;;;;;7.90;85.14;92274.09;5114392;28;19919;-86
2020/12/31 04:59:21;;;;;;;;;;;;;;;7.88;85.29;92279.41;5114131;28;19924;-86
2020/12/31 05:01:47;;;;;;;;;;;;;;;7.91;85.01;92280.00;5114150;28;19927;-85
2020/12/31 05:04:13;;;;;;;;;;;;;;;7.87;85.27;92272.75;5115147;28;19920;-85
2020/12/31 05:06:40;;;;;;;;;;;;;;;7.89;85.17;92282.75;5114273;28;19953;-86
2020/12/31 05:09:16;;;;;;;;;;;;;;;7.91;85.20;92282.53;5114365;28;19927;-87
2020/12/31 05:11:43;;;;;;;;;;;;;;;7.93;84.99;92295.88;5113825;28;20294;-86
2020/12/31 05:14:10;;;;;;;;;;;;;;;7.93;85.06;92288.22;5114132;28;19920;-86
2020/12/31 05:16:36;;;;;;;;;;;;;;;7.93;85.09;92285.66;5113700;28;19984;-85
2020/12/31 05:19:18;;;;;;;;;;;;;;;7.91;85.12;92285.09;5113817;28;19920;-86
2020/12/31 05:21:45;;;;;;;;;;;;;;;7.86;85.61;92278.84;5113839;28;19926;-86
2020/12/31 05:24:12;;;;;;;;;;;;;;;7.85;85.65;92281.63;5113824;28;19919;-85
2020/12/31 05:26:38;;;;;;;;;;;;;;;7.84;85.79;92285.19;5113298;28;19920;-85
2020/12/31 05:29:04;;;;;;;;;;;;;;;7.81;86.19;92283.84;5113529;28;20426;-85
2020/12/31 05:31:51;;;;;;;;;;;;;;;7.81;87.28;92288.16;5093705;28;19930;-86
2020/12/31 05:34:27;;;;;;;;;;;;;;;7.80;87.55;92292.50;5092876;28;19924;-85
2020/12/31 05:36:53;;;;;;;;;;;;;;;7.78;88.43;92297.03;5093191;28;19926;-85
2020/12/31 05:39:19;;;;;;;;;;;;;;;7.83;88.86;92297.16;5092904;28;19947;-85
2020/12/31 05:41:45;;;;;;;;;;;;;;;7.87;88.22;92302.66;5093131;28;19924;-87
2020/12/31 05:44:11;;;;;;;;;;;;;;;7.94;88.53;92313.56;5093004;28;19920;-85
2020/12/31 05:46:39;;;;;;;;;;;;;;;7.89;88.77;92310.88;5093008;28;19924;-86
2020/12/31 05:49:06;;;;;;;;;;;;;;;7.85;90.20;92317.41;5097070;28;19927;-86
2020/12/31 05:51:33;;;;;;;;;;;;;;;7.88;90.69;92304.22;5113016;28;19942;-87
2020/12/31 05:54:06;;;;;;;;;;;;;;;7.95;91.28;92306.66;5113061;28;20425;-85
2020/12/31 05:56:32;;;;;;;;;;;;;;;8.00;92.93;92306.81;5113104;28;19919;-86
2020/12/31 05:59:05;;;;;;;;;;;;;;;8.03;93.59;92321.72;5113001;28;19924;-85
2020/12/31 06:01:34;;;;;;;;;;;;;;;8.01;94.25;92324.50;5112770;28;19920;-86
2020/12/31 06:04:17;;;;;;;;;;;;;;;8.04;94.99;92320.72;5112454;28;19924;-86
2020/12/31 06:06:48;;;;;;;;;;;;;;;8.04;95.26;92322.53;5112800;28;19927;-86
2020/12/31 06:09:20;;;;;;;;;;;;;;;8.07;94.33;92328.00;5112764;28;19927;-86
2020/12/31 06:11:50;;;;;;;;;;;;;;;8.04;95.85;92328.41;5112585;28;19927;-85
2020/12/31 06:14:20;;;;;;;;;;;;;;;8.06;95.15;92334.06;5112494;28;19920;-87
2020/12/31 06:16:54;;;;;;;;;;;;;;;8.04;95.57;92336.06;5112568;28;19923;-86
2020/12/31 06:19:31;;;;;;;;;;;;;;;8.07;96.19;92330.53;5112757;28;20420;-86
2020/12/31 06:22:01;;;;;;;;;;;;;;;8.08;96.18;92321.06;5112784;28;20380;-86
2020/12/31 06:24:34;;;;;;;;;;;;;;;8.09;96.20;92331.09;5112668;28;20049;-87
2020/12/31 06:27:04;;;;;;;;;;;;;;;8.05;97.32;92329.19;5112585;28;20289;-87
2020/12/31 06:29:32;;;;;;;;;;;;;;;8.05;97.19;92341.97;5112791;28;19972;-86
2020/12/31 06:31:59;;;;;;;;;;;;;;;7.98;98.56;92358.19;5112941;28;19920;-86
2020/12/31 06:34:25;;;;;;;;;;;;;;;7.93;98.75;92349.59;5113253;28;19934;-87
2020/12/31 06:36:55;;;;;;;;;;;;;;;7.92;99.63;92358.25;5114890;28;19919;-87
2020/12/31 06:39:22;;;;;;;;;;;;;;;7.92;100.00;92371.03;5112137;28;20362;-90
2020/12/31 06:41:53;;;;;;;;;;;;;;;7.92;100.00;92366.69;5115096;28;20282;-88
2020/12/31 06:44:20;;;;;;;;;;;;;;;7.92;100.00;92376.16;5115010;28;19920;-88
2020/12/31 06:46:47;;;;;;;;;;;;;;;7.90;100.00;92381.47;5115101;28;20289;-89
2020/12/31 06:49:13;;;;;;;;;;;;;;;7.89;100.00;92379.91;5114658;28;19927;-88
2020/12/31 06:51:40;;;;;;;;;;;;;;;7.88;100.00;92370.69;5114020;28;19920;-90
2020/12/31 06:54:07;;;;;;;;;;;;;;;7.80;100.00;92374.31;5113715;28;19920;-89
2020/12/31 06:56:40;;;;;;;;;;;;;;;7.66;100.00;92383.09;5113866;28;20014;-91
2020/12/31 06:59:22;;;;;;;;;;;;;;;7.43;100.00;92381.94;5112903;28;20373;-89
2020/12/31 07:01:48;;;;;;;;;;;;;;;7.40;100.00;92401.03;5112687;28;19965;-90
2020/12/31 07:04:25;;;;;;;;;;;;;;;7.43;100.00;92410.03;5113467;28;19950;-90
2020/12/31 07:06:51;;;;;;;;;;;;;;;7.43;100.00;92405.72;5113029;28;19919;-89
2020/12/31 07:09:32;;;;;;;;;;;;;;;7.37;100.00;92396.34;5113440;28;19923;-91
2020/12/31 07:12:05;;;;;;;;;;;;;;;7.42;100.00;92396.50;5109514;28;19920;-88
2020/12/31 07:14:32;;;;;;;;;;;;;;;7.40;100.00;92402.81;5119205;28;19920;-90
2020/12/31 07:16:59;;;;;;;;;;;;;;;7.35;100.00;92403.41;5119361;28;19919;-94
2020/12/31 07:19:33;;;;;;;;;;;;;;;7.26;100.00;92397.78;5119017;28;19968;-91
2020/12/31 07:21:59;;;;;;;;;;;;;;;7.25;100.00;92398.78;5115603;27;19920;-91
2020/12/31 07:24:25;;;;;;;;;;;;;;;7.17;100.00;92404.19;5118399;28;19926;-89
2020/12/31 07:26:54;;;;;;;;;;;;;;;7.15;100.00;92399.28;5118751;28;19919;-90
2020/12/31 07:29:25;;;;;;;;;;;;;;;7.17;100.00;92406.72;5118477;28;20026;-89
2020/12/31 07:31:51;;;;;;;;;;;;;;;7.15;100.00;92401.03;5117005;28;20010;-89
2020/12/31 07:34:24;;;;;;;;;;;;;;;7.20;100.00;92384.09;5116795;28;19919;-91
2020/12/31 07:37:00;;;;;;;;;;;;;;;7.18;100.00;92382.75;5118395;28;19965;-91
2020/12/31 07:39:26;;;;;;;;;;;;;;;7.25;100.00;92387.78;5119938;28;19919;-89
2020/12/31 07:42:07;;;;;;;;;;;;;;;7.32;100.00;92401.31;5122505;28;19919;-92
2020/12/31 07:44:34;;;;;;;;;;;;;;;7.28;100.00;92390.72;5122988;28;20014;-90
2020/12/31 07:47:00;;;;;;;;;;;;;;;7.41;100.00;92389.03;5116782;28;19920;-90
2020/12/31 07:49:26;;;;;;;;;;;;;;;7.35;100.00;92390.66;5117750;28;20272;-89
2020/12/31 07:51:52;;;;;;;;;;;;;;;7.35;100.00;92394.00;5116992;28;19919;-90
2020/12/31 07:54:20;;;;;;;;;;;;;;;7.37;100.00;92398.91;5116660;28;19920;-90
2020/12/31 07:56:47;;;;;;;;;;;;;;;7.34;100.00;92402.66;5117823;28;19923;-89
2020/12/31 07:59:14;;;;;;;;;;;;;;;7.34;100.00;92405.22;5116719;28;19973;-91
2020/12/31 08:01:41;;;;;;;;;;;;;;;7.35;100.00;92398.31;5119898;28;19919;-89
2020/12/31 08:04:10;;;;;;;;;;;;;;;7.29;100.00;92397.38;5119467;28;20393;-90
2020/12/31 08:06:36;;;;;;;;;;;;;;;7.29;100.00;92406.81;5121654;28;19924;-89
2020/12/31 08:09:02;;;;;;;;;;;;;;;7.26;100.00;92397.03;5119061;28;19967;-89
2020/12/31 08:11:38;;;;;;;;;;;;;;;7.21;100.00;92406.09;5118829;28;19920;-89
2020/12/31 08:14:04;;;;;;;;;;;;;;;7.22;100.00;92417.88;5118666;28;19920;-90
2020/12/31 08:16:31;;;;;;;;;;;;;;;7.26;100.00;92415.69;5116507;28;19920;-90
2020/12/31 08:18:58;;;;;;;;;;;;;;;7.27;100.00;92417.22;5115811;28;20354;-89
2020/12/31 08:21:24;;;;;;;;;;;;;;;7.18;100.00;92414.16;5115908;28;19920;-88
2020/12/31 08:23:56;;;;;;;;;;;;;;;7.24;100.00;92406.66;5117149;28;20396;-88
2020/12/31 08:26:22;;;;;;;;;;;;;;;7.15;100.00;92403.59;5114918;28;19950;-89
2020/12/31 08:28:49;;;;;;;;;;;;;;;7.11;100.00;92400.66;5115871;28;19920;-89
2020/12/31 08:31:15;;;;;;;;;;;;;;;7.20;100.00;92403.75;5115395;28;19927;-88
2020/12/31 08:33:42;;;;;;;;;;;;;;;7.19;100.00;92402.19;5115646;28;20331;-88
2020/12/31 08:36:10;;;;;;;;;;;;;;;7.28;100.00;92392.47;5115471;28;19919;-88
2020/12/31 08:38:36;;;;;;;;;;;;;;;7.40;100.00;92374.72;5119272;28;19920;-88
2020/12/31 08:41:05;;;;;;;;;;;;;;;7.41;100.00;92358.38;5095972;28;19951;-88
2020/12/31 08:43:32;;;;;;;;;;;;;;;7.48;100.00;92359.88;5094711;28;20018;-88
2020/12/31 08:45:59;;;;;;;;;;;;;;;7.53;100.00;92371.22;5094509;28;19924;-89
2020/12/31 08:48:26;;;;;;;;;;;;;;;7.56;100.00;92370.81;5095607;28;20398;-88
2020/12/31 08:50:59;;;;;;;;;;;;;;;7.65;100.00;92371.31;5115358;28;20316;-88
2020/12/31 08:53:26;;;;;;;;;;;;;;;7.74;100.00;92375.16;5115307;28;19923;-87
2020/12/31 08:55:55;;;;;;;;;;;;;;;7.85;100.00;92378.78;5115257;28;19926;-88
2020/12/31 08:58:25;;;;;;;;;;;;;;;7.91;100.00;92377.91;5116070;28;19923;-88
2020/12/31 09:00:51;;;;;;;;;;;;;;;8.00;100.00;92380.97;5115260;28;19926;-87
2020/12/31 09:03:18;;;;;;;;;;;;;;;8.11;100.00;92376.94;5115442;28;19919;-88
2020/12/31 09:05:53;;;;;;;;;;;;;;;8.16;100.00;92379.63;5114740;28;19920;-89
2020/12/31 09:08:19;;;;;;;;;;;;;;;8.28;100.00;92384.78;5114696;28;19920;-87
2020/12/31 09:10:47;;;;;;;;;;;;;;;8.35;100.00;92377.03;5114191;28;19920;-86
2020/12/31 09:13:18;;;;;;;;;;;;;;;8.36;100.00;92381.94;5114482;28;19926;-87
2020/12/31 09:15:44;;;;;;;;;;;;;;;8.35;100.00;92365.03;5113831;28;19927;-87
2020/12/31 09:18:16;;;;;;;;;;;;;;;8.42;100.00;92365.72;5110722;28;19924;-88
2020/12/31 09:20:42;;;;;;;;;;;;;;;8.40;100.00;92361.81;5114263;28;19927;-87
2020/12/31 09:23:09;;;;;;;;;;;;;;;8.40;100.00;92357.50;5114127;28;19919;-86
2020/12/31 09:25:35;;;;;;;;;;;;;;;8.39;100.00;92360.25;5114033;28;19966;-89
2020/12/31 09:28:02;;;;;;;;;;;;;;;8.33;100.00;92356.78;5113812;28;19920;-88
2020/12/31 09:30:29;;;;;;;;;;;;;;;8.27;100.00;92353.31;5112883;28;20319;-86
2020/12/31 09:32:55;;;;;;;;;;;;;;;8.29;100.00;92345.44;5113658;28;19920;-88
2020/12/31 09:35:21;;;;;;;;;;;;;;;8.30;100.00;92349.53;5114738;28;19927;-87
2020/12/31 09:37:48;;;;;;;;;;;;;;;8.36;100.00;92343.56;5114825;28;19923;-87
2020/12/31 09:40:14;;;;;;;;;;;;;;;8.41;100.00;92342.91;5117824;28;20786;-87
2020/12/31 09:42:41;;;;;;;;;;;;;;;8.43;100.00;92341.69;5115033;28;19923;-87
2020/12/31 09:45:08;;;;;;;;;;;;;;;8.41;100.00;92335.22;5113119;28;20416;-87
2020/12/31 09:47:34;;;;;;;;;;;;;;;8.40;100.00;92321.66;5113510;28;20305;-87
2020/12/31 09:50:00;;;;;;;;;;;;;;;8.40;100.00;92306.31;5113144;28;19920;-88
2020/12/31 09:52:26;;;;;;;;;;;;;;;8.43;100.00;92297.41;5113282;28;19924;-87
2020/12/31 09:54:52;;;;;;;;;;;;;;;8.48;100.00;92304.44;5113242;28;20267;-88
2020/12/31 09:57:18;;;;;;;;;;;;;;;8.57;100.00;92305.72;5113091;28;19920;-87
2020/12/31 09:59:44;;;;;;;;;;;;;;;8.60;100.00;92310.38;5112983;28;19923;-85
2020/12/31 10:02:12;;;;;;;;;;;;;;;8.60;100.00;92301.94;5113092;28;20341;-87
2020/12/31 10:04:39;;;;;;;;;;;;;;;8.68;100.00;92307.50;5113071;28;19970;-86
2020/12/31 10:07:05;;;;;;;;;;;;;;;8.72;100.00;92320.66;5112719;28;19919;-89
2020/12/31 10:09:31;;;;;;;;;;;;;;;8.71;100.00;92321.66;5112637;28;20396;-87
2020/12/31 10:11:57;;;;;;;;;;;;;;;8.74;99.60;92315.31;5102511;28;19920;-88
2020/12/31 10:14:23;;;;;;;;;;;;;;;8.77;99.56;92319.97;5092186;28;20424;-87
2020/12/31 10:16:50;;;;;;;;;;;;;;;8.78;98.89;92322.34;5092519;28;20393;-85
2020/12/31 10:19:16;;;;;;;;;;;;;;;8.77;98.46;92332.78;5092301;28;20020;-87
2020/12/31 10:21:44;;;;;;;;;;;;;;;8.77;98.13;92325.09;5092013;28;20413;-86
2020/12/31 10:24:10;;;;;;;;;;;;;;;8.77;97.87;92320.78;5091937;28;19920;-84
2020/12/31 10:26:36;;;;;;;;;;;;;;;8.71;96.30;92324.22;5091795;28;19946;-85
2020/12/31 10:29:02;;;;;;;;;;;;;;;8.68;97.35;92299.84;5092134;28;19923;-89
2020/12/31 10:31:28;;;;;;;;;;;;;;;8.82;96.82;92307.31;5092411;28;19927;-87
2020/12/31 10:33:54;;;;;;;;;;;;;;;9.09;97.00;92309.44;5091849;28;19920;-86
2020/12/31 10:36:21;;;;;;;;;;;;;;;9.31;95.76;92308.88;5091848;28;19920;-87
2020/12/31 10:38:47;;;;;;;;;;;;;;;9.38;95.44;92303.63;5091914;28;19964;-88
2020/12/31 10:41:14;;;;;;;;;;;;;;;9.32;94.31;92300.97;5091718;28;19923;-87
2020/12/31 10:43:40;;;;;;;;;;;;;;;9.35;94.54;92297.97;5091793;28;19927;-87
2020/12/31 10:46:06;;;;;;;;;;;;;;;9.42;93.80;92302.19;5091745;28;20740;-86
2020/12/31 10:48:32;;;;;;;;;;;;;;;9.42;92.15;92295.28;5107244;28;19923;-87
2020/12/31 10:50:58;;;;;;;;;;;;;;;9.52;92.79;92299.84;5111857;28;19920;-87
2020/12/31 10:53:25;;;;;;;;;;;;;;;9.62;92.58;92300.03;5111931;28;19920;-86
2020/12/31 10:55:51;;;;;;;;;;;;;;;9.68;92.19;92300.91;5111797;28;19926;-89
